Time;durP1;ratioP1;P1;durP2;ratioP2;P2;SDS_P1;SDS_P2;PMS_P1;PMS_P2;Temp;Humidity;BMP_temperature;BMP_pressure;BME280_temperature;BME280_humidity;BME280_pressure;Samples;Min_cycle;Max_cycle;Signal;HPM_P1;HPM_P2
2022/10/14 00:01:02;;;;;;;9.80;7.87;;;;;;;11.67;100.00;-8214.06;5153834;27;20193;-62
2022/10/14 00:03:29;;;;;;;8.83;7.90;;;;;;;11.36;100.00;-9168.88;5153661;27;20189;-62
2022/10/14 00:05:56;;;;;;;8.43;7.77;;;;;;;11.67;100.00;-8852.59;5153823;27;20552;-62
2022/10/14 00:08:24;;;;;;;17.50;8.63;;;;;;;11.50;100.00;-8851.00;5153771;27;20624;-63
2022/10/14 00:10:51;;;;;;;9.13;8.23;;;;;;;11.66;100.00;-9490.84;5153759;27;20182;-62
2022/10/14 00:13:19;;;;;;;9.73;7.87;;;;;;;11.41;100.00;-11083.13;5153831;27;20186;-63
2022/10/14 00:15:46;;;;;;;11.13;8.37;;;;;;;11.48;100.00;-11721.66;5153652;27;20605;-62
2022/10/14 00:18:13;;;;;;;9.60;8.20;;;;;;;11.31;100.00;-12994.22;5153523;27;20557;-62
2022/10/14 00:20:40;;;;;;;8.57;7.23;;;;;;;11.53;100.00;-12997.63;5153473;27;20230;-61
2022/10/14 00:23:07;;;;;;;13.33;8.30;;;;;;;11.51;100.00;-12997.25;5153290;27;20192;-62
2022/10/14 00:25:38;;;;;;;11.93;8.23;;;;;;;11.53;100.00;-13634.97;5153472;27;20170;-62
2022/10/14 00:28:05;;;;;;;8.07;7.57;;;;;;;11.57;100.00;-14591.59;5153608;27;20621;-63
2022/10/14 00:30:34;;;;;;;9.30;7.97;;;;;;;11.53;100.00;-14590.97;5153215;27;20186;-62
2022/10/14 00:33:00;;;;;;;7.93;7.40;;;;;;;11.66;100.00;-14911.91;5153614;27;20644;-62
2022/10/14 00:35:27;;;;;;;11.60;8.20;;;;;;;11.53;100.00;-13953.63;5153662;27;20230;-63
2022/10/14 00:37:54;;;;;;;12.83;7.87;;;;;;;11.66;100.00;-13318.41;5153522;27;20186;-62
2022/10/14 00:40:21;;;;;;;9.67;7.93;;;;;;;11.77;100.00;-12682.47;5135183;27;20580;-63
2022/10/14 00:42:48;;;;;;;8.77;7.83;;;;;;;11.90;100.00;-11727.53;5153152;27;20182;-61
2022/10/14 00:45:20;;;;;;;8.57;7.47;;;;;;;11.71;100.00;-11405.84;5153411;27;20270;-62
2022/10/14 00:47:52;;;;;;;8.50;7.57;;;;;;;11.54;100.00;-12679.03;5153175;27;20199;-63
2022/10/14 00:50:20;;;;;;;12.10;7.47;;;;;;;11.72;100.00;-12681.72;5153456;27;20564;-63
2022/10/14 00:52:48;;;;;;;11.23;7.73;;;;;;;11.65;100.00;-12680.72;5153254;27;20186;-62
2022/10/14 00:55:18;;;;;;;9.00;8.10;;;;;;;11.56;100.00;-12998.03;5153089;27;20182;-62
2022/10/14 00:57:46;;;;;;;8.90;8.03;;;;;;;11.77;100.00;-13001.38;5153198;27;20189;-63
2022/10/14 01:00:14;;;;;;;8.13;7.43;;;;;;;11.75;100.00;-13319.88;5153269;27;20206;-62
2022/10/14 01:02:42;;;;;;;8.37;7.53;;;;;;;11.50;100.00;-12359.63;5153334;27;20186;-62
2022/10/14 01:05:13;;;;;;;9.70;7.53;;;;;;;11.65;100.00;-12042.97;5152915;27;20178;-61
2022/10/14 01:07:58;;;;;;;7.50;7.00;;;;;;;11.29;100.00;-11719.09;5153051;27;20200;-61
2022/10/14 01:10:32;;;;;;;7.93;7.23;;;;;;;11.33;100.00;-13950.31;5153289;27;20556;-62
2022/10/14 01:13:13;;;;;;;7.17;6.47;;;;;;;11.49;100.00;-14590.13;5153779;27;20624;-63
2022/10/14 01:15:51;;;;;;;7.03;6.63;;;;;;;11.72;100.00;-14275.78;5156708;27;20177;-62
2022/10/14 01:18:33;;;;;;;6.80;6.37;;;;;;;11.56;100.00;-16502.47;5156898;27;20575;-62
2022/10/14 01:21:10;;;;;;;7.70;7.03;;;;;;;11.82;100.00;-17782.00;5156528;27;20248;-62
2022/10/14 01:24:09;;;;;;;6.73;6.20;;;;;;;11.89;100.00;-18103.97;5156866;27;20185;-63
2022/10/14 01:26:56;;;;;;;12.80;7.43;;;;;;;11.84;100.00;-18100.91;5156714;27;20178;-62
2022/10/14 01:29:53;;;;;;;7.63;7.07;;;;;;;11.80;100.00;-17144.66;5156377;27;20185;-62
2022/10/14 01:32:26;;;;;;;7.83;7.00;;;;;;;11.96;100.00;-16511.09;5156404;27;20181;-63
2022/10/14 01:35:01;;;;;;;7.77;7.13;;;;;;;11.71;100.00;-15550.09;5156683;27;20651;-62
2022/10/14 01:37:30;;;;;;;7.70;7.00;;;;;;;11.86;100.00;-15871.75;5156397;27;20246;-62
2022/10/14 01:40:03;;;;;;;9.60;6.27;;;;;;;12.01;100.00;-15556.00;5156440;27;20210;-63
2022/10/14 01:42:34;;;;;;;7.07;6.47;;;;;;;11.91;100.00;-13960.25;5156206;27;20194;-63
2022/10/14 01:45:06;;;;;;;7.33;6.60;;;;;;;11.72;100.00;-12362.91;5156079;27;20633;-63
2022/10/14 01:47:36;;;;;;;7.30;6.60;;;;;;;11.37;100.00;-12995.19;5156383;27;20596;-62
2022/10/14 01:50:07;;;;;;;7.47;6.73;;;;;;;11.42;100.00;-14270.47;5156238;27;20521;-62
2022/10/14 01:52:38;;;;;;;7.70;7.00;;;;;;;11.46;100.00;-15545.28;5156178;27;20183;-62
2022/10/14 01:55:09;;;;;;;7.60;6.40;;;;;;;11.53;100.00;-16501.81;5155939;27;20186;-63
2022/10/14 01:57:40;;;;;;;10.67;7.60;;;;;;;11.68;100.00;-16505.06;5155963;27;20182;-62
2022/10/14 02:00:10;;;;;;;7.10;6.50;;;;;;;11.81;100.00;-16189.31;5155809;27;20298;-62
2022/10/14 02:02:37;;;;;;;6.77;6.07;;;;;;;11.89;100.00;-16509.59;5155915;27;20183;-62
2022/10/14 02:05:09;;;;;;;6.43;6.00;;;;;;;11.86;100.00;-17464.50;5156307;27;20559;-63
2022/10/14 02:07:40;;;;;;;9.07;6.17;;;;;;;11.91;100.00;-17465.66;5155675;27;20273;-61
2022/10/14 02:10:20;;;;;;;7.40;6.63;;;;;;;11.75;100.00;-16825.06;5155627;27;20292;-62
2022/10/14 02:13:00;;;;;;;6.50;6.10;;;;;;;11.69;100.00;-17778.94;5155730;27;20186;-61
2022/10/14 02:15:36;;;;;;;8.73;6.10;;;;;;;11.55;100.00;-17775.75;5155742;27;20189;-62
2022/10/14 02:18:11;;;;;;;6.53;5.83;;;;;;;11.67;100.00;-17778.47;5155656;27;20276;-62
2022/10/14 02:20:42;;;;;;;8.10;5.80;;;;;;;11.66;100.00;-17778.22;5155185;27;20229;-62
2022/10/14 02:23:15;;;;;;;13.10;6.27;;;;;;;11.68;100.00;-17778.81;5155507;27;20190;-63
2022/10/14 02:25:46;;;;;;;8.63;5.70;;;;;;;11.45;100.00;-15863.53;5154132;27;20257;-61
2022/10/14 02:28:18;;;;;;;10.50;6.70;;;;;;;11.39;100.00;-15862.19;5155516;27;20188;-63
2022/10/14 02:30:50;;;;;;;10.43;6.00;;;;;;;11.33;100.00;-14905.84;5155512;27;20611;-62
2022/10/14 02:33:20;;;;;;;6.37;5.73;;;;;;;11.23;100.00;-15540.69;5155468;27;20559;-62
2022/10/14 02:35:48;;;;;;;13.03;6.53;;;;;;;11.34;100.00;-15542.78;5155220;27;20193;-62
2022/10/14 02:38:17;;;;;;;8.13;6.70;;;;;;;11.29;100.00;-14905.06;5155344;27;20522;-62
2022/10/14 02:40:47;;;;;;;7.33;6.40;;;;;;;11.04;100.00;-14263.66;5155230;27;20672;-62
2022/10/14 02:43:14;;;;;;;9.87;6.77;;;;;;;11.27;100.00;-14904.69;5154921;27;20189;-61
2022/10/14 02:45:43;;;;;;;7.77;6.63;;;;;;;11.17;100.00;-14584.41;5154909;27;20194;-62
2022/10/14 02:48:12;;;;;;;11.57;6.87;;;;;;;11.35;100.00;-14906.22;5154983;27;20277;-62
2022/10/14 02:50:40;;;;;;;9.70;6.40;;;;;;;11.42;100.00;-14589.03;5155130;27;20621;-61
2022/10/14 02:53:07;;;;;;;11.13;6.43;;;;;;;11.19;100.00;-14266.34;5154747;27;20273;-63
2022/10/14 02:55:34;;;;;;;11.17;6.17;;;;;;;10.98;100.00;-13944.31;5154655;27;20182;-62
2022/10/14 02:58:00;;;;;;;14.70;6.77;;;;;;;11.16;100.00;-14265.72;5154972;27;20186;-62
2022/10/14 03:00:27;;;;;;;14.03;6.23;;;;;;;11.15;100.00;-14265.63;5154854;27;20205;-62
2022/10/14 03:02:54;;;;;;;7.27;6.53;;;;;;;11.33;100.00;-14268.78;5154560;27;20192;-61
2022/10/14 03:05:23;;;;;;;15.30;6.77;;;;;;;11.36;100.00;-14587.91;5154866;27;20573;-62
2022/10/14 03:07:50;;;;;;;14.30;7.03;;;;;;;11.25;100.00;-16177.72;5154547;27;20178;-63
2022/10/14 03:10:17;;;;;;;15.93;6.93;;;;;;;11.37;100.00;-17453.41;5154744;27;20174;-62
2022/10/14 03:12:44;;;;;;;10.73;7.37;;;;;;;11.38;100.00;-18091.78;5154346;27;20185;-62
2022/10/14 03:15:11;;;;;;;15.27;7.63;;;;;;;11.32;100.00;-18088.59;5154553;27;20704;-64
2022/10/14 03:17:38;;;;;;;18.83;7.87;;;;;;;11.30;100.00;-18088.09;5154414;27;20221;-61
2022/10/14 03:20:07;;;;;;;16.70;7.70;;;;;;;11.36;100.00;-17771.38;5154304;27;20229;-62
2022/10/14 03:22:35;;;;;;;9.37;7.63;;;;;;;11.35;100.00;-17452.84;5154230;27;20190;-61
2022/10/14 03:25:02;;;;;;;13.93;8.40;;;;;;;11.18;100.00;-17449.03;5154297;27;20194;-62
2022/10/14 03:27:29;;;;;;;17.00;8.27;;;;;;;11.15;100.00;-18084.38;5154217;27;20192;-62
2022/10/14 03:29:56;;;;;;;18.87;9.30;;;;;;;11.24;100.00;-18088.41;5153964;27;20185;-61
2022/10/14 03:32:23;;;;;;;19.13;9.70;;;;;;;11.05;100.00;-18083.94;5154002;27;20186;-62
2022/10/14 03:34:50;;;;;;;15.80;9.43;;;;;;;11.02;100.00;-18083.09;5154029;27;20178;-62
2022/10/14 03:37:17;;;;;;;10.97;8.83;;;;;;;10.98;100.00;-18082.25;5153519;27;20182;-63
2022/10/14 03:39:45;;;;;;;18.87;9.43;;;;;;;11.06;100.00;-18084.19;5154201;27;20567;-62
2022/10/14 03:42:12;;;;;;;15.37;9.17;;;;;;;11.02;100.00;-18083.22;5153872;27;20185;-62
2022/10/14 03:44:39;;;;;;;16.40;9.90;;;;;;;11.11;100.00;-18085.38;5135751;27;20184;-63
2022/10/14 03:47:06;;;;;;;16.83;9.70;;;;;;;11.11;100.00;-18085.38;5153702;27;20182;-61
2022/10/14 03:49:33;;;;;;;26.03;10.40;;;;;;;11.19;100.00;-18087.19;5154091;27;20687;-62
2022/10/14 03:52:00;;;;;;;28.97;9.73;;;;;;;11.17;100.00;-18086.84;5135533;27;20178;-63
2022/10/14 03:54:27;;;;;;;28.53;10.30;;;;;;;11.07;100.00;-18084.44;5154136;27;20629;-61
2022/10/14 03:56:55;;;;;;;20.00;10.33;;;;;;;11.03;100.00;-18083.47;5153977;27;20548;-62
2022/10/14 03:59:22;;;;;;;29.97;11.00;;;;;;;11.19;100.00;-18087.19;5153686;27;20193;-62
2022/10/14 04:01:49;;;;;;;9.87;9.10;;;;;;;11.26;100.00;-18089.00;5153900;27;20572;-61
2022/10/14 04:04:16;;;;;;;23.33;11.73;;;;;;;11.35;100.00;-18091.19;5153605;27;20186;-61
2022/10/14 04:06:43;;;;;;;16.83;10.60;;;;;;;11.27;100.00;-18089.13;5153429;27;20188;-62
2022/10/14 04:09:10;;;;;;;29.33;11.97;;;;;;;11.31;100.00;-18090.22;5153469;27;20178;-62
2022/10/14 04:11:37;;;;;;;35.33;13.40;;;;;;;11.46;100.00;-18093.72;5153633;27;20214;-62
2022/10/14 04:14:05;;;;;;;21.40;12.63;;;;;;;11.44;100.00;-18093.34;5153739;27;20559;-63
2022/10/14 04:16:32;;;;;;;24.07;12.80;;;;;;;11.52;100.00;-18095.16;5153460;27;20193;-61
2022/10/14 04:18:59;;;;;;;22.73;15.53;;;;;;;11.49;100.00;-18094.44;5153603;27;20651;-63
2022/10/14 04:21:26;;;;;;;22.83;14.17;;;;;;;11.22;100.00;-18088.03;5153246;27;20221;-62
2022/10/14 04:23:53;;;;;;;20.27;10.63;;;;;;;11.61;100.00;-18097.34;5134966;27;20277;-62
2022/10/14 04:26:21;;;;;;;27.00;14.53;;;;;;;11.65;100.00;-18098.31;5153306;27;20192;-62
2022/10/14 04:28:48;;;;;;;23.77;14.47;;;;;;;11.76;100.00;-18100.84;5153262;27;20178;-63
2022/10/14 04:31:16;;;;;;;32.40;15.23;;;;;;;11.68;100.00;-18098.91;5153531;27;20186;-62
2022/10/14 04:33:43;;;;;;;34.00;15.93;;;;;;;11.72;100.00;-18100.00;5153797;27;20552;-62
2022/10/14 04:36:10;;;;;;;33.27;14.77;;;;;;;11.74;100.00;-18098.50;5153264;27;20192;-61
2022/10/14 04:38:37;;;;;;;30.47;15.17;;;;;;;11.80;100.00;-18099.94;5153815;27;20558;-62
2022/10/14 04:41:04;;;;;;;36.70;15.63;;;;;;;11.83;100.00;-17782.25;5153570;27;20282;-62
2022/10/14 04:43:31;;;;;;;35.87;15.97;;;;;;;11.85;100.00;-18101.16;5153448;27;20521;-62
2022/10/14 04:45:58;;;;;;;29.50;15.63;;;;;;;11.97;100.00;-18104.03;5153119;27;20186;-63
2022/10/14 04:48:26;;;;;;;12.77;9.27;;;;;;;12.06;100.00;-17787.56;5154400;27;20186;-62
2022/10/14 04:50:54;;;;;;;50.00;15.53;;;;;;;12.16;100.00;-18108.63;5157472;27;20184;-63
2022/10/14 04:53:21;;;;;;;57.30;17.37;;;;;;;12.30;100.00;-18111.88;5157424;27;20186;-63
2022/10/14 04:55:48;;;;;;;53.07;18.90;;;;;;;12.27;100.00;-16517.66;5138735;27;20186;-62
2022/10/14 04:58:16;;;;;;;39.13;18.20;;;;;;;12.32;100.00;-13967.31;5157261;27;20648;-61
2022/10/14 05:00:43;;;;;;;54.77;18.03;;;;;;;12.31;100.00;-13009.94;5156900;27;20292;-62
2022/10/14 05:03:10;;;;;;;73.87;20.43;;;;;;;12.40;100.00;-12372.84;5156809;27;20189;-63
2022/10/14 05:05:38;;;;;;;64.27;19.60;;;;;;;12.43;100.00;-12053.94;5156816;27;20231;-62
2022/10/14 05:08:05;;;;;;;52.10;20.43;;;;;;;12.51;100.00;-11735.72;5156670;27;20189;-63
2022/10/14 05:10:33;;;;;;;53.13;19.50;;;;;;;12.48;100.00;-12373.94;5156914;27;20193;-59
2022/10/14 05:13:00;;;;;;;101.17;28.40;;;;;;;12.42;100.00;-10776.44;5156843;27;20186;-57
2022/10/14 05:15:27;;;;;;;50.50;20.60;;;;;;;12.34;100.00;-11094.88;5156626;27;20192;-60
2022/10/14 05:17:54;;;;;;;26.27;11.57;;;;;;;12.48;100.00;-12693.28;5156694;27;20269;-60
2022/10/14 05:20:21;;;;;;;20.27;11.70;;;;;;;12.48;100.00;-16203.28;5156711;27;20312;-61
2022/10/14 05:22:49;;;;;;;24.57;13.67;;;;;;;12.88;100.00;-18127.59;5156478;27;20193;-59
2022/10/14 05:25:18;;;;;;;47.07;17.67;;;;;;;12.99;100.00;-18128.38;5156500;27;20246;-61
2022/10/14 05:27:45;;;;;;;37.37;15.53;;;;;;;13.08;100.00;-18130.53;5156447;27;20186;-60
2022/10/14 05:30:13;;;;;;;29.10;15.60;;;;;;;13.34;100.00;-17817.38;5156358;27;20196;-59
2022/10/14 05:32:40;;;;;;;51.97;17.10;;;;;;;13.41;100.00;-15583.66;5156324;27;20276;-60
2022/10/14 05:35:09;;;;;;;35.50;15.93;;;;;;;13.51;100.00;-13668.06;5156188;27;20198;-60
2022/10/14 05:37:36;;;;;;;33.07;15.53;;;;;;;13.48;100.00;-10789.25;5156732;27;20182;-61
2022/10/14 05:40:06;;;;;;;16.10;11.53;;;;;;;13.67;100.00;-9190.81;5156019;27;20205;-61
2022/10/14 05:42:33;;;;;;;18.67;12.47;;;;;;;13.81;100.00;-13353.22;5156128;27;20189;-61
2022/10/14 05:45:00;;;;;;;34.27;14.93;;;;;;;13.97;100.00;-11755.63;5137703;27;20179;-61
2022/10/14 05:47:27;;;;;;;30.57;13.83;;;;;;;14.15;100.00;-9836.28;5156216;27;20560;-60
2022/10/14 05:49:54;;;;;;;48.70;15.47;;;;;;;14.30;100.00;-7914.38;5155884;27;20184;-60
2022/10/14 05:52:20;;;;;;;19.87;10.23;;;;;;;14.32;100.00;-7273.06;5155939;27;20191;-60
2022/10/14 05:54:47;;;;;;;30.57;13.23;;;;;;;14.65;100.00;-7275.19;5155855;27;20189;-61
2022/10/14 05:57:16;;;;;;;46.97;13.87;;;;;;;14.86;100.00;-5028.66;5156073;27;20568;-60
2022/10/14 05:59:43;;;;;;;19.17;10.43;;;;;;;15.14;100.00;-2778.97;5151569;27;20245;-60
2022/10/14 06:02:10;;;;;;;34.60;12.03;;;;;;;15.23;100.00;-1813.81;5135575;27;20235;-61
2022/10/14 06:04:39;;;;;;;17.97;10.43;;;;;;;15.32;100.00;-2457.09;5134589;27;20187;-63
2022/10/14 06:07:08;;;;;;;9.97;8.90;;;;;;;15.39;100.00;-525.88;5134895;27;20284;-60
2022/10/14 06:09:35;;;;;;;14.20;10.33;;;;;;;15.64;100.00;119.47;5135578;27;20182;-61
2022/10/14 06:12:02;;;;;;;17.10;9.97;;;;;;;15.82;100.00;3989.66;5134777;27;20182;-62
2022/10/14 06:14:30;;;;;;;11.37;8.80;;;;;;;16.03;100.00;6251.88;5135120;27;20281;-62
2022/10/14 06:16:57;;;;;;;16.97;10.20;;;;;;;16.34;100.00;9489.38;5135153;27;20281;-62
2022/10/14 06:19:24;;;;;;;16.23;8.10;;;;;;;16.37;100.00;14993.09;5135337;27;20191;-62
2022/10/14 06:21:52;;;;;;;47.83;12.67;;;;;;;16.89;100.00;22474.84;5134809;27;20241;-62
2022/10/14 06:24:19;;;;;;;41.23;13.47;;;;;;;17.29;100.00;39771.44;5135010;27;20556;-63
2022/10/14 06:26:47;;;;;;;20.93;10.10;;;;;;;18.00;100.00;74688.88;5134763;27;20275;-62
2022/10/14 06:29:14;;;;;;;19.27;9.63;;;;;;;18.18;100.00;107944.78;5134882;27;20278;-62
2022/10/14 06:31:42;;;;;;;14.07;8.43;;;;;;;18.11;100.00;113278.28;5134736;27;20174;-62
2022/10/14 06:34:09;;;;;;;29.53;24.27;;;;;;;18.14;100.00;115290.09;5134392;27;20183;-62
2022/10/14 06:36:37;;;;;;;12.23;8.77;;;;;;;18.43;100.00;128090.72;5135323;27;20659;-62
2022/10/14 06:39:04;;;;;;;10.93;7.80;;;;;;;18.95;100.00;150800.00;5134943;27;20202;-62
2022/10/14 06:41:31;;;;;;;18.53;8.60;;;;;;;18.90;100.00;150787.25;5134433;27;20206;-63
2022/10/14 06:43:58;;;;;;;14.07;7.77;;;;;;;19.13;100.00;150845.81;5134802;27;20259;-63
2022/10/14 06:46:25;;;;;;;10.60;8.60;;;;;;;19.24;100.00;150872.50;5134904;27;20604;-63
2022/10/14 06:48:54;;;;;;;9.23;8.00;;;;;;;19.74;100.00;150999.81;5134319;27;20277;-64
2022/10/14 06:51:21;;;;;;;28.00;11.47;;;;;;;20.23;100.00;151122.03;5134490;27;20273;-63
2022/10/14 06:53:49;;;;;;;40.17;12.53;;;;;;;20.70;100.00;151240.53;5134363;27;20186;-64
2022/10/14 06:56:16;;;;;;;9.95;7.00;;;;;;;21.09;100.00;151338.63;5134347;27;20183;-63
2022/10/14 06:58:43;;;;;;;5.85;5.40;;;;;;;20.65;100.00;151227.78;5134247;27;20226;-61
2022/10/14 07:01:13;;;;;;;23.80;8.23;;;;;;;21.08;100.00;151337.34;5134144;27;20203;-64
2022/10/14 07:03:40;;;;;;;27.83;9.20;;;;;;;21.36;100.00;151407.44;5132478;27;20190;-63
2022/10/14 07:06:11;;;;;;;12.20;7.72;;;;;;;21.48;100.00;151438.03;5134091;27;20270;-63
2022/10/14 07:08:38;;;;;;;7.60;6.60;;;;;;;21.57;100.00;151459.69;5134099;27;20190;-63
2022/10/14 07:11:06;;;;;;;11.30;7.53;;;;;;;21.72;100.00;151499.25;5114894;27;20237;-63
2022/10/14 07:13:36;;;;;;;5.47;5.13;;;;;;;20.74;100.00;151250.72;5134126;27;20553;-63
2022/10/14 07:16:06;;;;;;;8.80;7.60;;;;;;;20.14;100.00;151100.41;5133951;27;20198;-62
2022/10/14 07:18:33;;;;;;;7.53;6.87;;;;;;;20.14;100.00;151099.13;5134251;27;20185;-62
2022/10/14 07:21:03;;;;;;;5.60;4.47;;;;;;;19.93;100.00;151046.94;5133641;27;20633;-64
2022/10/14 07:23:32;;;;;;;4.80;4.40;;;;;;;20.06;100.00;151081.31;5133432;27;20254;-63
2022/10/14 07:26:00;;;;;;;4.73;4.40;;;;;;;19.88;100.00;151035.47;5113819;28;20183;-64
2022/10/14 07:28:27;;;;;;;6.70;4.43;;;;;;;20.21;100.00;151118.22;5112940;28;20202;-67
2022/10/14 07:30:58;;;;;;;6.67;3.87;;;;;;;20.27;100.00;151133.50;5112927;28;20184;-62
2022/10/14 07:33:25;;;;;;;4.00;3.70;;;;;;;20.90;100.00;151292.75;5112879;28;20616;-62
2022/10/14 07:35:52;;;;;;;4.27;3.97;;;;;;;20.91;100.00;151294.03;5113218;28;20658;-63
2022/10/14 07:38:19;;;;;;;11.38;3.55;;;;;;;21.30;100.00;151392.19;5112978;28;20183;-63
2022/10/14 07:40:56;;;;;;;6.72;3.80;;;;;;;21.89;100.00;151541.31;5112509;28;20207;-64
2022/10/14 07:43:23;;;;;;;4.35;3.72;;;;;;;21.40;100.00;151418.94;5112388;28;20236;-63
2022/10/14 07:45:50;;;;;;;4.55;4.15;;;;;;;21.96;100.00;151559.19;5112942;28;20206;-64
2022/10/14 07:48:17;;;;;;;4.53;4.22;;;;;;;22.20;100.00;151620.38;5112803;28;20278;-64
2022/10/14 07:50:49;;;;;;;6.22;3.70;;;;;;;21.37;100.00;151410.00;5112413;28;20271;-62
2022/10/14 07:53:18;;;;;;;4.03;3.70;;;;;;;20.65;100.00;151227.78;5113491;28;20607;-60
2022/10/14 07:55:51;;;;;;;4.60;4.20;;;;;;;21.21;100.00;151370.53;5112319;28;20196;-61
2022/10/14 07:58:19;;;;;;;5.30;4.13;;;;;;;21.66;100.00;151482.66;5111610;28;20195;-61
2022/10/14 08:00:46;;;;;;;4.35;3.53;;;;;;;21.82;100.00;151523.44;5112250;28;20293;-61
2022/10/14 08:03:21;;;;;;;3.33;3.13;;;;;;;21.49;100.00;151439.31;5112741;28;20585;-63
2022/10/14 08:05:49;;;;;;;6.35;4.43;;;;;;;21.72;100.00;151499.25;5150249;27;20564;-64
2022/10/14 08:08:17;;;;;;;3.88;3.58;;;;;;;20.85;100.00;151278.72;5153254;27;20185;-62
2022/10/14 08:10:45;;;;;;;7.30;3.77;;;;;;;20.64;100.00;151226.50;5153182;27;20184;-62
2022/10/14 08:13:15;;;;;;;4.15;3.92;;;;;;;20.48;100.00;151187.03;5154030;27;20235;-62
2022/10/14 08:15:42;;;;;;;3.97;3.40;;;;;;;20.81;100.00;151268.53;5154083;27;20204;-64
2022/10/14 08:18:10;;;;;;;3.80;3.50;;;;;;;20.28;100.00;151136.06;5153627;27;20604;-63
2022/10/14 08:20:48;;;;;;;7.93;3.70;;;;;;;21.24;100.00;151376.88;5153254;27;20331;-63
2022/10/14 08:23:15;;;;;;;3.72;3.53;;;;;;;21.67;100.00;151485.22;5156082;27;20189;-64
2022/10/14 08:25:43;;;;;;;3.50;3.20;;;;;;;21.02;100.00;151320.75;5158064;27;20606;-63
2022/10/14 08:28:11;;;;;;;3.30;3.10;;;;;;;20.69;100.00;151239.25;5158186;27;20650;-63
2022/10/14 08:30:39;;;;;;;4.13;3.83;;;;;;;21.07;100.00;151334.78;5157709;27;20178;-63
2022/10/14 08:33:06;;;;;;;8.23;3.40;;;;;;;21.87;100.00;151536.19;5157824;27;20185;-63
2022/10/14 08:35:33;;;;;;;4.05;3.80;;;;;;;22.21;100.00;151622.94;5157987;27;20530;-64
2022/10/14 08:38:02;;;;;;;4.90;3.55;;;;;;;21.09;100.00;151339.84;5157408;27;20276;-63
2022/10/14 08:40:31;;;;;;;5.55;3.70;;;;;;;20.84;100.00;151277.44;5157681;27;20220;-63
2022/10/14 08:43:03;;;;;;;6.18;3.65;;;;;;;20.98;100.00;151313.13;5157351;27;20185;-63
2022/10/14 08:45:35;;;;;;;9.70;3.60;;;;;;;21.97;100.00;151560.47;5157842;27;20551;-64
2022/10/14 08:48:11;;;;;;;6.70;3.35;;;;;;;21.23;100.00;151374.31;5157343;27;20178;-63
2022/10/14 08:50:44;;;;;;;5.55;3.67;;;;;;;20.53;100.00;151198.50;5145351;27;20570;-64
2022/10/14 08:53:15;;;;;;;4.77;3.33;;;;;;;20.29;100.00;151137.28;5128455;27;20268;-63
2022/10/14 08:55:44;;;;;;;3.37;2.73;;;;;;;19.87;100.00;151031.63;5136126;27;20182;-63
2022/10/14 08:58:21;;;;;;;4.80;3.20;;;;;;;19.69;100.00;150985.84;5122485;27;20199;-63
2022/10/14 09:00:51;;;;;;;6.73;3.60;;;;;;;19.45;100.00;150927.28;5115816;28;20594;-62
2022/10/14 09:03:22;;;;;;;7.07;3.77;;;;;;;19.60;100.00;150965.44;5115874;28;20186;-63
2022/10/14 09:05:57;;;;;;;3.27;2.97;;;;;;;19.40;100.00;150914.50;5115328;28;20190;-62
2022/10/14 09:08:29;;;;;;;5.53;3.80;;;;;;;19.30;100.00;150889.06;5115372;28;20179;-62
2022/10/14 09:10:58;;;;;;;7.83;3.00;;;;;;;20.66;100.00;151230.34;5097751;28;20562;-63
2022/10/14 09:13:31;;;;;;;5.78;3.17;;;;;;;22.01;100.00;151570.66;5115594;28;20179;-63
2022/10/14 09:16:02;;;;;;;6.13;2.85;;;;;;;22.18;100.00;151615.28;5115193;28;20194;-63
2022/10/14 09:18:35;;;;;;;6.68;2.92;;;;;;;22.80;100.00;151770.91;5115228;28;20535;-63
2022/10/14 09:21:05;;;;;;;8.52;3.78;;;;;;;23.04;100.00;151830.88;5114250;28;20230;-64
2022/10/14 09:23:33;;;;;;;5.38;2.70;;;;;;;21.28;100.00;151388.34;5114929;28;20271;-62
2022/10/14 09:26:08;;;;;;;4.22;2.72;;;;;;;21.75;100.00;151506.88;5114831;28;20203;-63
2022/10/14 09:28:39;;;;;;;4.70;2.90;;;;;;;21.49;100.00;151439.31;5146688;27;20185;-60
2022/10/14 09:31:07;;;;;;;3.58;3.15;;;;;;;20.95;100.00;151304.22;5152942;27;20194;-61
2022/10/14 09:33:38;;;;;;;2.85;2.50;;;;;;;21.23;100.00;151375.59;5155730;27;20210;-62
2022/10/14 09:36:06;;;;;;;2.70;2.50;;;;;;;21.75;100.00;151505.59;5150450;27;20273;-63
2022/10/14 09:38:33;;;;;;;4.10;2.80;;;;;;;22.08;100.00;151588.50;5156686;27;20651;-63
2022/10/14 09:41:00;;;;;;;3.67;2.75;;;;;;;20.87;100.00;151283.84;5137894;27;20562;-63
2022/10/14 09:43:28;;;;;;;7.65;3.33;;;;;;;21.08;100.00;151337.34;5148890;27;20190;-63
2022/10/14 09:45:58;;;;;;;3.08;2.78;;;;;;;21.23;100.00;151374.31;5156148;27;20281;-63
2022/10/14 09:48:38;;;;;;;8.13;3.45;;;;;;;20.79;100.00;151263.47;5155555;27;20182;-63
2022/10/14 09:51:07;;;;;;;4.90;2.95;;;;;;;21.50;100.00;151441.88;5155962;27;20181;-62
2022/10/14 09:53:39;;;;;;;3.35;2.65;;;;;;;20.72;100.00;151245.59;5155904;27;20243;-63
2022/10/14 09:56:08;;;;;;;5.17;2.73;;;;;;;21.09;100.00;151339.84;5155748;27;20182;-64
2022/10/14 09:58:39;;;;;;;2.35;2.10;;;;;;;20.61;100.00;151217.59;5155605;27;20182;-63
2022/10/14 10:01:11;;;;;;;4.13;2.90;;;;;;;19.69;100.00;150985.84;5153864;27;20284;-64
2022/10/14 10:03:41;;;;;;;3.20;2.90;;;;;;;19.75;100.00;151001.09;5152330;27;20190;-63
2022/10/14 10:06:13;;;;;;;7.17;3.43;;;;;;;19.06;100.00;150827.97;5155987;27;20182;-62
2022/10/14 10:08:54;;;;;;;4.20;2.80;;;;;;;19.30;100.00;150889.06;5155802;27;20286;-62
2022/10/14 10:11:28;;;;;;;8.53;2.50;;;;;;;19.51;100.00;150941.28;5155704;27;20184;-62
2022/10/14 10:13:55;;;;;;;6.97;2.83;;;;;;;19.66;100.00;150978.16;5156087;27;20182;-63
2022/10/14 10:16:24;;;;;;;3.57;2.77;;;;;;;19.47;100.00;150931.09;5155795;27;20186;-62
2022/10/14 10:18:56;;;;;;;5.33;3.17;;;;;;;20.28;100.00;151134.78;5155755;27;20544;-60
2022/10/14 10:21:26;;;;;;;3.13;2.93;;;;;;;19.95;100.00;151052.00;5155628;27;20224;-63
2022/10/14 10:23:58;;;;;;;4.87;3.20;;;;;;;20.03;100.00;151072.34;5137070;27;20182;-61
2022/10/14 10:26:30;;;;;;;4.97;2.87;;;;;;;20.46;100.00;151181.91;5155328;27;20215;-63
2022/10/14 10:28:59;;;;;;;4.37;2.90;;;;;;;20.32;100.00;151146.31;5155639;27;20178;-63
2022/10/14 10:31:54;;;;;;;3.37;2.70;;;;;;;19.47;100.00;150932.38;5152319;27;20659;-63
2022/10/14 10:34:43;;;;;;;4.53;2.60;;;;;;;20.27;100.00;151132.22;5137649;27;20189;-62
2022/10/14 10:37:25;;;;;;;7.00;2.50;;;;;;;20.38;100.00;151161.56;5135331;27;20202;-63
2022/10/14 10:40:03;;;;;;;4.53;2.67;;;;;;;19.93;100.00;151046.94;5135577;27;20247;-63
2022/10/14 10:42:42;;;;;;;4.70;2.90;;;;;;;19.99;100.00;151062.19;5133959;27;20209;-63
2022/10/14 10:45:16;;;;;;;6.90;2.93;;;;;;;20.03;100.00;151073.63;5133519;27;20192;-57
2022/10/14 10:47:50;;;;;;;4.10;3.30;;;;;;;20.61;100.00;151218.88;5133406;27;20190;-57
2022/10/14 10:50:29;;;;;;;4.95;3.25;;;;;;;21.87;100.00;151537.47;5133862;27;20232;-58
2022/10/14 10:53:22;;;;;;;2.65;2.35;;;;;;;22.06;100.00;151584.69;5155301;27;20186;-58
2022/10/14 10:56:04;;;;;;;4.97;2.50;;;;;;;20.79;100.00;151263.47;5155101;27;20182;-57
2022/10/14 10:58:41;;;;;;;8.32;3.00;;;;;;;20.89;100.00;151288.91;5154650;27;20235;-59
2022/10/14 11:01:20;;;;;;;3.93;2.60;;;;;;;20.56;100.00;151204.84;5154724;27;20188;-58
2022/10/14 11:04:05;;;;;;;2.87;2.23;;;;;;;20.22;100.00;151119.50;5154538;27;20182;-59
2022/10/14 11:12:24;;;;;;;2.60;2.37;;;;;;;19.33;100.00;150896.69;5134222;27;20170;-57
2022/10/14 11:15:29;;;;;;;5.57;2.23;;;;;;;19.02;100.00;150817.78;5116234;27;20630;-58
2022/10/14 11:18:01;;;;;;;5.40;2.20;;;;;;;18.81;100.00;150764.34;5115385;27;20196;-57
2022/10/14 11:20:38;;;;;;;3.20;2.30;;;;;;;18.71;100.00;150740.22;5115077;27;20663;-57
2022/10/14 11:23:38;;;;;;;5.10;3.17;;;;;;;18.25;100.00;150624.41;5133609;27;20232;-57
2022/10/14 11:26:19;;;;;;;3.80;2.50;;;;;;;18.39;100.00;150660.03;5133608;27;20190;-57
2022/10/14 11:28:54;;;;;;;3.17;2.97;;;;;;;18.20;100.00;150612.97;5133169;27;20183;-57
2022/10/14 11:31:33;;;;;;;4.13;2.47;;;;;;;18.27;100.00;150629.53;5133515;27;20182;-58